sensor_id;sensor_type;location;lat;lon;timestamp;P1;durP1;ratioP1;P2;durP2;ratioP2
11123;SDS011;5616;42.692;23.312;2023-08-31T00:02:07;6.03;;;2.47;;
11123;SDS011;5616;42.692;23.312;2023-08-31T00:04:34;5.17;;;2.37;;
11123;SDS011;5616;42.692;23.312;2023-08-31T00:07:02;4.13;;;2.40;;
11123;SDS011;5616;42.692;23.312;2023-08-31T00:09:30;4.33;;;2.20;;
11123;SDS011;5616;42.692;23.312;2023-08-31T00:11:57;4.40;;;2.27;;
11123;SDS011;5616;42.692;23.312;2023-08-31T00:14:23;4.40;;;2.50;;
11123;SDS011;5616;42.692;23.312;2023-08-31T00:16:51;5.20;;;2.60;;
11123;SDS011;5616;42.692;23.312;2023-08-31T00:19:18;8.60;;;2.40;;
11123;SDS011;5616;42.692;23.312;2023-08-31T00:21:45;7.87;;;2.70;;
11123;SDS011;5616;42.692;23.312;2023-08-31T00:24:15;5.97;;;2.57;;
11123;SDS011;5616;42.692;23.312;2023-08-31T00:26:42;5.77;;;2.50;;
11123;SDS011;5616;42.692;23.312;2023-08-31T00:29:10;5.30;;;2.90;;
11123;SDS011;5616;42.692;23.312;2023-08-31T00:31:37;5.80;;;2.73;;
11123;SDS011;5616;42.692;23.312;2023-08-31T00:34:05;4.90;;;2.77;;
11123;SDS011;5616;42.692;23.312;2023-08-31T00:36:32;3.97;;;2.67;;
11123;SDS011;5616;42.692;23.312;2023-08-31T00:39:02;5.23;;;2.60;;
11123;SDS011;5616;42.692;23.312;2023-08-31T00:41:33;3.60;;;2.30;;
11123;SDS011;5616;42.692;23.312;2023-08-31T00:44:00;3.90;;;2.43;;
11123;SDS011;5616;42.692;23.312;2023-08-31T00:46:27;7.17;;;2.70;;
11123;SDS011;5616;42.692;23.312;2023-08-31T00:48:55;4.10;;;2.43;;
11123;SDS011;5616;42.692;23.312;2023-08-31T00:51:21;3.47;;;2.10;;
11123;SDS011;5616;42.692;23.312;2023-08-31T00:53:48;8.07;;;2.73;;
11123;SDS011;5616;42.692;23.312;2023-08-31T00:56:18;6.77;;;2.23;;
11123;SDS011;5616;42.692;23.312;2023-08-31T00:58:47;4.23;;;2.33;;
11123;SDS011;5616;42.692;23.312;2023-08-31T01:01:16;4.40;;;2.47;;
11123;SDS011;5616;42.692;23.312;2023-08-31T01:03:53;5.40;;;2.73;;
11123;SDS011;5616;42.692;23.312;2023-08-31T01:06:32;3.83;;;2.27;;
11123;SDS011;5616;42.692;23.312;2023-08-31T01:09:10;4.25;;;2.55;;
11123;SDS011;5616;42.692;23.312;2023-08-31T01:11:45;5.07;;;2.53;;
11123;SDS011;5616;42.692;23.312;2023-08-31T01:14:23;4.57;;;2.57;;
11123;SDS011;5616;42.692;23.312;2023-08-31T01:16:51;4.27;;;2.63;;
11123;SDS011;5616;42.692;23.312;2023-08-31T01:19:25;3.77;;;2.13;;
11123;SDS011;5616;42.692;23.312;2023-08-31T01:22:05;7.00;;;2.70;;
11123;SDS011;5616;42.692;23.312;2023-08-31T01:24:39;5.07;;;2.30;;
11123;SDS011;5616;42.692;23.312;2023-08-31T01:27:07;4.90;;;2.60;;
11123;SDS011;5616;42.692;23.312;2023-08-31T01:29:34;5.53;;;2.50;;
11123;SDS011;5616;42.692;23.312;2023-08-31T01:32:04;4.73;;;2.30;;
11123;SDS011;5616;42.692;23.312;2023-08-31T01:34:32;4.77;;;2.67;;
11123;SDS011;5616;42.692;23.312;2023-08-31T01:37:00;6.03;;;2.90;;
11123;SDS011;5616;42.692;23.312;2023-08-31T01:39:35;4.93;;;2.20;;
11123;SDS011;5616;42.692;23.312;2023-08-31T01:42:08;3.97;;;2.60;;
11123;SDS011;5616;42.692;23.312;2023-08-31T01:44:39;7.10;;;2.73;;
11123;SDS011;5616;42.692;23.312;2023-08-31T01:47:07;5.07;;;2.50;;
11123;SDS011;5616;42.692;23.312;2023-08-31T01:49:37;3.70;;;2.70;;
11123;SDS011;5616;42.692;23.312;2023-08-31T01:52:05;4.47;;;2.47;;
11123;SDS011;5616;42.692;23.312;2023-08-31T01:54:32;7.20;;;2.77;;
11123;SDS011;5616;42.692;23.312;2023-08-31T01:57:04;6.87;;;2.30;;
11123;SDS011;5616;42.692;23.312;2023-08-31T01:59:31;4.43;;;2.50;;
11123;SDS011;5616;42.692;23.312;2023-08-31T02:01:59;4.20;;;2.30;;
11123;SDS011;5616;42.692;23.312;2023-08-31T02:04:26;4.70;;;2.43;;
11123;SDS011;5616;42.692;23.312;2023-08-31T02:06:56;4.10;;;2.40;;
11123;SDS011;5616;42.692;23.312;2023-08-31T02:09:23;4.83;;;2.40;;
11123;SDS011;5616;42.692;23.312;2023-08-31T02:11:50;3.53;;;2.33;;
11123;SDS011;5616;42.692;23.312;2023-08-31T02:14:18;5.60;;;2.40;;
11123;SDS011;5616;42.692;23.312;2023-08-31T02:16:45;4.23;;;2.43;;
11123;SDS011;5616;42.692;23.312;2023-08-31T02:19:11;7.80;;;2.60;;
11123;SDS011;5616;42.692;23.312;2023-08-31T02:21:38;3.33;;;2.40;;
11123;SDS011;5616;42.692;23.312;2023-08-31T02:24:05;3.90;;;2.17;;
11123;SDS011;5616;42.692;23.312;2023-08-31T02:26:33;4.57;;;2.20;;
11123;SDS011;5616;42.692;23.312;2023-08-31T02:29:01;7.33;;;2.87;;
11123;SDS011;5616;42.692;23.312;2023-08-31T02:31:29;5.73;;;2.60;;
11123;SDS011;5616;42.692;23.312;2023-08-31T02:33:56;6.73;;;2.37;;
11123;SDS011;5616;42.692;23.312;2023-08-31T02:36:24;4.23;;;2.47;;
11123;SDS011;5616;42.692;23.312;2023-08-31T02:38:51;3.53;;;2.37;;
11123;SDS011;5616;42.692;23.312;2023-08-31T02:41:18;5.53;;;2.27;;
11123;SDS011;5616;42.692;23.312;2023-08-31T02:43:45;4.77;;;2.30;;
11123;SDS011;5616;42.692;23.312;2023-08-31T02:46:12;3.67;;;2.20;;
11123;SDS011;5616;42.692;23.312;2023-08-31T02:48:40;6.40;;;2.40;;
11123;SDS011;5616;42.692;23.312;2023-08-31T02:51:07;3.83;;;2.47;;
11123;SDS011;5616;42.692;23.312;2023-08-31T02:53:34;4.60;;;2.60;;
11123;SDS011;5616;42.692;23.312;2023-08-31T02:56:01;5.13;;;2.53;;
11123;SDS011;5616;42.692;23.312;2023-08-31T02:58:29;4.50;;;2.53;;
11123;SDS011;5616;42.692;23.312;2023-08-31T03:01:05;6.93;;;2.67;;
11123;SDS011;5616;42.692;23.312;2023-08-31T03:03:33;3.43;;;2.30;;
11123;SDS011;5616;42.692;23.312;2023-08-31T03:06:01;5.23;;;2.47;;
11123;SDS011;5616;42.692;23.312;2023-08-31T03:08:28;6.23;;;2.80;;
11123;SDS011;5616;42.692;23.312;2023-08-31T03:10:56;5.87;;;2.80;;
11123;SDS011;5616;42.692;23.312;2023-08-31T03:13:24;5.83;;;2.60;;
11123;SDS011;5616;42.692;23.312;2023-08-31T03:15:51;6.43;;;2.40;;
11123;SDS011;5616;42.692;23.312;2023-08-31T03:18:18;4.10;;;2.43;;
11123;SDS011;5616;42.692;23.312;2023-08-31T03:20:46;4.43;;;2.30;;
11123;SDS011;5616;42.692;23.312;2023-08-31T03:23:14;3.67;;;2.33;;
11123;SDS011;5616;42.692;23.312;2023-08-31T03:25:41;3.90;;;2.40;;
11123;SDS011;5616;42.692;23.312;2023-08-31T03:28:08;4.80;;;2.50;;
11123;SDS011;5616;42.692;23.312;2023-08-31T03:30:36;7.17;;;2.53;;
11123;SDS011;5616;42.692;23.312;2023-08-31T03:33:03;3.47;;;2.47;;
11123;SDS011;5616;42.692;23.312;2023-08-31T03:35:31;3.03;;;2.10;;
11123;SDS011;5616;42.692;23.312;2023-08-31T03:37:58;5.00;;;2.50;;
11123;SDS011;5616;42.692;23.312;2023-08-31T03:40:28;3.90;;;2.27;;
11123;SDS011;5616;42.692;23.312;2023-08-31T03:42:55;5.43;;;2.53;;
11123;SDS011;5616;42.692;23.312;2023-08-31T03:45:22;8.30;;;2.77;;
11123;SDS011;5616;42.692;23.312;2023-08-31T03:47:49;4.10;;;2.47;;
11123;SDS011;5616;42.692;23.312;2023-08-31T03:50:16;3.40;;;2.60;;
11123;SDS011;5616;42.692;23.312;2023-08-31T03:52:45;8.23;;;3.73;;
11123;SDS011;5616;42.692;23.312;2023-08-31T03:55:12;7.83;;;4.87;;
11123;SDS011;5616;42.692;23.312;2023-08-31T03:57:41;6.70;;;4.87;;
11123;SDS011;5616;42.692;23.312;2023-08-31T04:00:15;11.37;;;6.73;;
11123;SDS011;5616;42.692;23.312;2023-08-31T04:02:42;12.50;;;8.00;;
11123;SDS011;5616;42.692;23.312;2023-08-31T04:05:11;16.03;;;9.90;;
11123;SDS011;5616;42.692;23.312;2023-08-31T04:07:42;11.00;;;6.60;;
11123;SDS011;5616;42.692;23.312;2023-08-31T04:10:09;8.43;;;5.10;;
11123;SDS011;5616;42.692;23.312;2023-08-31T04:12:36;9.90;;;5.03;;
11123;SDS011;5616;42.692;23.312;2023-08-31T04:15:06;9.37;;;5.00;;
11123;SDS011;5616;42.692;23.312;2023-08-31T04:17:35;10.07;;;5.30;;
11123;SDS011;5616;42.692;23.312;2023-08-31T04:20:02;10.57;;;4.60;;
11123;SDS011;5616;42.692;23.312;2023-08-31T04:22:31;5.90;;;3.90;;
11123;SDS011;5616;42.692;23.312;2023-08-31T04:24:57;8.70;;;4.10;;
11123;SDS011;5616;42.692;23.312;2023-08-31T04:27:24;7.80;;;4.23;;
11123;SDS011;5616;42.692;23.312;2023-08-31T04:29:51;7.47;;;4.07;;
11123;SDS011;5616;42.692;23.312;2023-08-31T04:32:20;7.23;;;4.13;;
11123;SDS011;5616;42.692;23.312;2023-08-31T04:34:46;10.73;;;4.40;;
11123;SDS011;5616;42.692;23.312;2023-08-31T04:37:13;7.47;;;4.57;;
11123;SDS011;5616;42.692;23.312;2023-08-31T04:39:40;6.57;;;4.13;;
11123;SDS011;5616;42.692;23.312;2023-08-31T04:42:07;6.50;;;4.30;;
11123;SDS011;5616;42.692;23.312;2023-08-31T04:44:34;9.47;;;4.23;;
11123;SDS011;5616;42.692;23.312;2023-08-31T04:47:01;6.10;;;4.20;;
11123;SDS011;5616;42.692;23.312;2023-08-31T04:49:29;6.90;;;4.40;;
11123;SDS011;5616;42.692;23.312;2023-08-31T04:51:56;8.37;;;4.80;;
11123;SDS011;5616;42.692;23.312;2023-08-31T04:54:23;10.23;;;4.73;;
11123;SDS011;5616;42.692;23.312;2023-08-31T04:56:50;8.77;;;4.27;;
11123;SDS011;5616;42.692;23.312;2023-08-31T04:59:17;8.10;;;4.10;;
11123;SDS011;5616;42.692;23.312;2023-08-31T05:01:44;11.30;;;3.93;;
11123;SDS011;5616;42.692;23.312;2023-08-31T05:04:11;8.70;;;3.90;;
11123;SDS011;5616;42.692;23.312;2023-08-31T05:06:39;11.80;;;4.10;;
11123;SDS011;5616;42.692;23.312;2023-08-31T05:09:06;8.30;;;4.10;;
11123;SDS011;5616;42.692;23.312;2023-08-31T05:11:33;6.00;;;3.80;;
11123;SDS011;5616;42.692;23.312;2023-08-31T05:14:00;9.27;;;3.77;;
11123;SDS011;5616;42.692;23.312;2023-08-31T05:16:27;9.50;;;4.40;;
11123;SDS011;5616;42.692;23.312;2023-08-31T05:18:53;8.30;;;3.87;;
11123;SDS011;5616;42.692;23.312;2023-08-31T05:21:20;6.40;;;3.77;;
11123;SDS011;5616;42.692;23.312;2023-08-31T05:23:48;8.67;;;3.90;;
11123;SDS011;5616;42.692;23.312;2023-08-31T05:26:15;5.43;;;3.63;;
11123;SDS011;5616;42.692;23.312;2023-08-31T05:28:42;4.87;;;3.47;;
11123;SDS011;5616;42.692;23.312;2023-08-31T05:31:09;7.30;;;3.30;;
11123;SDS011;5616;42.692;23.312;2023-08-31T05:33:36;6.40;;;2.80;;
11123;SDS011;5616;42.692;23.312;2023-08-31T05:36:03;7.10;;;3.20;;
11123;SDS011;5616;42.692;23.312;2023-08-31T05:38:30;7.63;;;3.67;;
11123;SDS011;5616;42.692;23.312;2023-08-31T05:41:05;6.50;;;3.07;;
11123;SDS011;5616;42.692;23.312;2023-08-31T05:43:32;7.40;;;3.00;;
11123;SDS011;5616;42.692;23.312;2023-08-31T05:46:00;7.43;;;3.30;;
11123;SDS011;5616;42.692;23.312;2023-08-31T05:48:28;7.93;;;3.37;;
11123;SDS011;5616;42.692;23.312;2023-08-31T05:50:55;4.93;;;2.97;;
11123;SDS011;5616;42.692;23.312;2023-08-31T05:53:21;6.97;;;3.33;;
11123;SDS011;5616;42.692;23.312;2023-08-31T05:55:48;8.50;;;3.90;;
11123;SDS011;5616;42.692;23.312;2023-08-31T05:58:17;14.87;;;4.43;;
11123;SDS011;5616;42.692;23.312;2023-08-31T06:00:44;10.90;;;4.50;;
11123;SDS011;5616;42.692;23.312;2023-08-31T06:03:10;8.20;;;4.60;;
11123;SDS011;5616;42.692;23.312;2023-08-31T06:05:37;8.27;;;4.00;;
11123;SDS011;5616;42.692;23.312;2023-08-31T06:08:04;14.20;;;4.87;;
11123;SDS011;5616;42.692;23.312;2023-08-31T06:10:32;9.03;;;4.63;;
11123;SDS011;5616;42.692;23.312;2023-08-31T06:12:58;10.73;;;4.47;;
11123;SDS011;5616;42.692;23.312;2023-08-31T06:15:27;13.40;;;4.47;;
11123;SDS011;5616;42.692;23.312;2023-08-31T06:17:54;7.20;;;4.33;;
11123;SDS011;5616;42.692;23.312;2023-08-31T06:20:21;11.17;;;5.17;;
11123;SDS011;5616;42.692;23.312;2023-08-31T06:22:48;7.78;;;4.28;;
11123;SDS011;5616;42.692;23.312;2023-08-31T06:25:16;9.20;;;4.70;;
11123;SDS011;5616;42.692;23.312;2023-08-31T06:27:44;13.48;;;4.75;;
11123;SDS011;5616;42.692;23.312;2023-08-31T06:30:11;9.25;;;4.85;;
11123;SDS011;5616;42.692;23.312;2023-08-31T06:32:43;10.30;;;4.70;;
11123;SDS011;5616;42.692;23.312;2023-08-31T06:35:10;12.27;;;5.00;;
11123;SDS011;5616;42.692;23.312;2023-08-31T06:37:37;10.60;;;4.68;;
11123;SDS011;5616;42.692;23.312;2023-08-31T06:40:05;8.40;;;3.50;;
11123;SDS011;5616;42.692;23.312;2023-08-31T06:42:33;7.83;;;3.87;;
11123;SDS011;5616;42.692;23.312;2023-08-31T06:45:00;9.13;;;3.30;;
11123;SDS011;5616;42.692;23.312;2023-08-31T06:47:27;10.13;;;3.63;;
11123;SDS011;5616;42.692;23.312;2023-08-31T06:49:55;6.82;;;3.10;;
11123;SDS011;5616;42.692;23.312;2023-08-31T06:52:22;8.68;;;3.50;;
11123;SDS011;5616;42.692;23.312;2023-08-31T06:54:49;8.20;;;3.50;;
11123;SDS011;5616;42.692;23.312;2023-08-31T06:57:20;7.68;;;3.85;;
11123;SDS011;5616;42.692;23.312;2023-08-31T06:59:47;7.35;;;3.53;;
11123;SDS011;5616;42.692;23.312;2023-08-31T07:02:14;12.07;;;3.97;;
11123;SDS011;5616;42.692;23.312;2023-08-31T07:04:41;12.10;;;3.72;;
11123;SDS011;5616;42.692;23.312;2023-08-31T07:07:10;8.02;;;3.92;;
11123;SDS011;5616;42.692;23.312;2023-08-31T07:09:39;15.20;;;4.18;;
11123;SDS011;5616;42.692;23.312;2023-08-31T07:12:06;9.40;;;3.90;;
11123;SDS011;5616;42.692;23.312;2023-08-31T07:14:33;13.77;;;3.80;;
11123;SDS011;5616;42.692;23.312;2023-08-31T07:16:59;8.85;;;3.85;;
11123;SDS011;5616;42.692;23.312;2023-08-31T07:19:26;9.60;;;3.65;;
11123;SDS011;5616;42.692;23.312;2023-08-31T07:21:53;7.78;;;3.80;;
11123;SDS011;5616;42.692;23.312;2023-08-31T07:24:22;11.50;;;3.53;;
11123;SDS011;5616;42.692;23.312;2023-08-31T07:26:49;6.43;;;3.42;;
11123;SDS011;5616;42.692;23.312;2023-08-31T07:29:16;7.75;;;3.47;;
11123;SDS011;5616;42.692;23.312;2023-08-31T07:31:43;10.18;;;3.75;;
11123;SDS011;5616;42.692;23.312;2023-08-31T07:34:10;8.20;;;3.22;;
11123;SDS011;5616;42.692;23.312;2023-08-31T07:36:36;8.05;;;2.50;;
11123;SDS011;5616;42.692;23.312;2023-08-31T07:39:04;10.90;;;2.90;;
11123;SDS011;5616;42.692;23.312;2023-08-31T07:41:33;7.15;;;2.75;;
11123;SDS011;5616;42.692;23.312;2023-08-31T07:44:00;12.13;;;2.90;;
11123;SDS011;5616;42.692;23.312;2023-08-31T07:46:28;9.02;;;2.83;;
11123;SDS011;5616;42.692;23.312;2023-08-31T07:48:55;8.43;;;2.72;;
11123;SDS011;5616;42.692;23.312;2023-08-31T07:51:21;5.35;;;2.40;;
11123;SDS011;5616;42.692;23.312;2023-08-31T07:53:49;6.05;;;2.20;;
11123;SDS011;5616;42.692;23.312;2023-08-31T07:56:16;6.18;;;3.08;;
11123;SDS011;5616;42.692;23.312;2023-08-31T07:58:45;7.40;;;2.80;;
11123;SDS011;5616;42.692;23.312;2023-08-31T08:01:12;7.72;;;3.17;;
11123;SDS011;5616;42.692;23.312;2023-08-31T08:03:38;8.02;;;3.20;;
11123;SDS011;5616;42.692;23.312;2023-08-31T08:06:05;9.30;;;3.05;;
11123;SDS011;5616;42.692;23.312;2023-08-31T08:08:33;5.57;;;2.47;;
11123;SDS011;5616;42.692;23.312;2023-08-31T08:11:00;10.02;;;2.80;;
11123;SDS011;5616;42.692;23.312;2023-08-31T08:13:28;4.03;;;2.50;;
11123;SDS011;5616;42.692;23.312;2023-08-31T08:15:56;6.65;;;3.00;;
11123;SDS011;5616;42.692;23.312;2023-08-31T08:18:23;6.97;;;3.10;;
11123;SDS011;5616;42.692;23.312;2023-08-31T08:20:50;5.45;;;2.85;;
11123;SDS011;5616;42.692;23.312;2023-08-31T08:23:17;4.97;;;3.00;;
11123;SDS011;5616;42.692;23.312;2023-08-31T08:25:44;5.68;;;2.85;;
11123;SDS011;5616;42.692;23.312;2023-08-31T08:28:11;8.02;;;3.63;;
11123;SDS011;5616;42.692;23.312;2023-08-31T08:30:37;6.95;;;3.30;;
11123;SDS011;5616;42.692;23.312;2023-08-31T08:33:06;6.22;;;3.10;;
11123;SDS011;5616;42.692;23.312;2023-08-31T08:35:34;4.18;;;3.30;;
11123;SDS011;5616;42.692;23.312;2023-08-31T08:38:01;4.45;;;3.20;;
11123;SDS011;5616;42.692;23.312;2023-08-31T08:40:30;4.78;;;3.50;;
11123;SDS011;5616;42.692;23.312;2023-08-31T08:42:57;6.07;;;4.32;;
11123;SDS011;5616;42.692;23.312;2023-08-31T08:45:29;5.38;;;4.18;;
11123;SDS011;5616;42.692;23.312;2023-08-31T08:48:02;10.38;;;4.90;;
11123;SDS011;5616;42.692;23.312;2023-08-31T08:50:33;6.65;;;4.40;;
11123;SDS011;5616;42.692;23.312;2023-08-31T08:53:01;5.05;;;4.20;;
11123;SDS011;5616;42.692;23.312;2023-08-31T08:55:29;6.45;;;4.30;;
11123;SDS011;5616;42.692;23.312;2023-08-31T08:57:57;4.57;;;4.07;;
11123;SDS011;5616;42.692;23.312;2023-08-31T09:00:24;4.90;;;4.22;;
11123;SDS011;5616;42.692;23.312;2023-08-31T09:02:52;5.68;;;4.30;;
11123;SDS011;5616;42.692;23.312;2023-08-31T09:05:20;6.30;;;4.60;;
11123;SDS011;5616;42.692;23.312;2023-08-31T09:08:03;7.00;;;4.57;;
11123;SDS011;5616;42.692;23.312;2023-08-31T09:10:35;5.82;;;4.22;;
11123;SDS011;5616;42.692;23.312;2023-08-31T09:13:07;4.78;;;4.28;;
11123;SDS011;5616;42.692;23.312;2023-08-31T09:15:39;4.22;;;3.55;;
11123;SDS011;5616;42.692;23.312;2023-08-31T09:18:06;5.35;;;4.20;;
11123;SDS011;5616;42.692;23.312;2023-08-31T09:20:43;6.30;;;3.78;;
11123;SDS011;5616;42.692;23.312;2023-08-31T09:23:11;5.75;;;4.05;;
11123;SDS011;5616;42.692;23.312;2023-08-31T09:25:40;6.20;;;4.35;;
11123;SDS011;5616;42.692;23.312;2023-08-31T09:28:08;4.63;;;4.22;;
11123;SDS011;5616;42.692;23.312;2023-08-31T09:30:35;5.10;;;4.03;;
11123;SDS011;5616;42.692;23.312;2023-08-31T09:33:03;5.75;;;3.95;;
11123;SDS011;5616;42.692;23.312;2023-08-31T09:35:31;5.97;;;4.70;;
11123;SDS011;5616;42.692;23.312;2023-08-31T09:37:59;6.15;;;4.03;;
11123;SDS011;5616;42.692;23.312;2023-08-31T09:40:27;5.53;;;3.83;;
11123;SDS011;5616;42.692;23.312;2023-08-31T09:42:54;5.80;;;3.97;;
11123;SDS011;5616;42.692;23.312;2023-08-31T09:45:25;5.00;;;4.00;;
11123;SDS011;5616;42.692;23.312;2023-08-31T09:47:56;5.30;;;4.13;;
11123;SDS011;5616;42.692;23.312;2023-08-31T09:50:24;4.75;;;4.18;;
11123;SDS011;5616;42.692;23.312;2023-08-31T09:52:53;6.28;;;4.07;;
11123;SDS011;5616;42.692;23.312;2023-08-31T09:55:23;6.32;;;4.38;;
11123;SDS011;5616;42.692;23.312;2023-08-31T09:57:54;5.38;;;3.95;;
11123;SDS011;5616;42.692;23.312;2023-08-31T10:00:23;4.55;;;3.97;;
11123;SDS011;5616;42.692;23.312;2023-08-31T10:02:50;5.38;;;4.13;;
11123;SDS011;5616;42.692;23.312;2023-08-31T10:05:18;6.03;;;4.53;;
11123;SDS011;5616;42.692;23.312;2023-08-31T10:07:46;4.85;;;4.35;;
11123;SDS011;5616;42.692;23.312;2023-08-31T10:10:14;4.78;;;4.22;;
11123;SDS011;5616;42.692;23.312;2023-08-31T10:12:43;6.25;;;4.70;;
11123;SDS011;5616;42.692;23.312;2023-08-31T10:15:11;4.72;;;4.30;;
11123;SDS011;5616;42.692;23.312;2023-08-31T10:17:39;4.65;;;4.15;;
11123;SDS011;5616;42.692;23.312;2023-08-31T10:20:07;5.20;;;4.40;;
11123;SDS011;5616;42.692;23.312;2023-08-31T10:22:37;5.28;;;4.68;;
11123;SDS011;5616;42.692;23.312;2023-08-31T10:25:04;8.40;;;4.60;;
11123;SDS011;5616;42.692;23.312;2023-08-31T10:27:38;5.75;;;4.95;;
11123;SDS011;5616;42.692;23.312;2023-08-31T10:30:14;4.82;;;4.07;;
11123;SDS011;5616;42.692;23.312;2023-08-31T10:32:42;5.63;;;5.03;;
11123;SDS011;5616;42.692;23.312;2023-08-31T10:35:09;5.78;;;4.20;;
11123;SDS011;5616;42.692;23.312;2023-08-31T10:37:36;5.38;;;4.28;;
11123;SDS011;5616;42.692;23.312;2023-08-31T10:40:09;5.07;;;4.10;;
11123;SDS011;5616;42.692;23.312;2023-08-31T10:42:43;4.80;;;3.97;;
11123;SDS011;5616;42.692;23.312;2023-08-31T10:45:13;5.25;;;4.75;;
11123;SDS011;5616;42.692;23.312;2023-08-31T10:47:40;4.85;;;4.35;;
11123;SDS011;5616;42.692;23.312;2023-08-31T10:50:17;6.57;;;4.38;;
11123;SDS011;5616;42.692;23.312;2023-08-31T10:52:45;4.53;;;3.92;;
11123;SDS011;5616;42.692;23.312;2023-08-31T10:55:12;5.20;;;4.10;;
11123;SDS011;5616;42.692;23.312;2023-08-31T10:57:40;6.05;;;3.90;;
11123;SDS011;5616;42.692;23.312;2023-08-31T11:00:07;5.15;;;4.15;;
11123;SDS011;5616;42.692;23.312;2023-08-31T11:02:38;4.57;;;4.00;;
11123;SDS011;5616;42.692;23.312;2023-08-31T11:05:09;6.38;;;3.85;;
11123;SDS011;5616;42.692;23.312;2023-08-31T11:07:37;8.40;;;4.53;;
11123;SDS011;5616;42.692;23.312;2023-08-31T11:10:06;5.03;;;3.63;;
11123;SDS011;5616;42.692;23.312;2023-08-31T11:12:35;5.28;;;3.78;;
11123;SDS011;5616;42.692;23.312;2023-08-31T11:15:02;5.07;;;3.92;;
11123;SDS011;5616;42.692;23.312;2023-08-31T11:17:29;4.68;;;3.38;;
11123;SDS011;5616;42.692;23.312;2023-08-31T11:19:59;8.32;;;3.88;;
11123;SDS011;5616;42.692;23.312;2023-08-31T11:22:26;5.68;;;3.50;;
11123;SDS011;5616;42.692;23.312;2023-08-31T11:24:53;5.30;;;3.70;;
11123;SDS011;5616;42.692;23.312;2023-08-31T11:27:20;4.70;;;4.30;;
11123;SDS011;5616;42.692;23.312;2023-08-31T11:29:47;5.50;;;4.15;;
11123;SDS011;5616;42.692;23.312;2023-08-31T11:32:14;5.43;;;4.00;;
11123;SDS011;5616;42.692;23.312;2023-08-31T11:34:41;4.18;;;3.78;;
11123;SDS011;5616;42.692;23.312;2023-08-31T11:37:10;5.47;;;3.83;;
11123;SDS011;5616;42.692;23.312;2023-08-31T11:39:40;7.20;;;3.85;;
11123;SDS011;5616;42.692;23.312;2023-08-31T11:42:08;4.93;;;3.78;;
11123;SDS011;5616;42.692;23.312;2023-08-31T11:44:35;6.45;;;3.03;;
11123;SDS011;5616;42.692;23.312;2023-08-31T11:47:02;6.95;;;3.40;;
11123;SDS011;5616;42.692;23.312;2023-08-31T11:49:29;7.43;;;3.60;;
11123;SDS011;5616;42.692;23.312;2023-08-31T11:51:56;5.00;;;3.45;;
11123;SDS011;5616;42.692;23.312;2023-08-31T11:54:25;6.43;;;3.50;;
11123;SDS011;5616;42.692;23.312;2023-08-31T11:56:52;4.70;;;3.67;;
11123;SDS011;5616;42.692;23.312;2023-08-31T11:59:20;4.57;;;3.20;;
11123;SDS011;5616;42.692;23.312;2023-08-31T12:01:49;4.30;;;3.47;;
11123;SDS011;5616;42.692;23.312;2023-08-31T12:04:17;5.85;;;3.30;;
11123;SDS011;5616;42.692;23.312;2023-08-31T12:06:48;5.40;;;3.15;;
11123;SDS011;5616;42.692;23.312;2023-08-31T12:09:16;4.35;;;3.38;;
11123;SDS011;5616;42.692;23.312;2023-08-31T12:11:50;5.13;;;3.38;;
11123;SDS011;5616;42.692;23.312;2023-08-31T12:14:18;4.43;;;3.30;;
11123;SDS011;5616;42.692;23.312;2023-08-31T12:16:46;4.70;;;3.47;;
11123;SDS011;5616;42.692;23.312;2023-08-31T12:19:13;3.75;;;3.20;;
11123;SDS011;5616;42.692;23.312;2023-08-31T12:21:41;4.72;;;3.28;;
11123;SDS011;5616;42.692;23.312;2023-08-31T12:24:08;5.93;;;3.03;;
11123;SDS011;5616;42.692;23.312;2023-08-31T12:26:35;7.53;;;3.30;;
11123;SDS011;5616;42.692;23.312;2023-08-31T12:29:04;5.05;;;3.33;;
11123;SDS011;5616;42.692;23.312;2023-08-31T12:31:31;4.03;;;3.30;;
11123;SDS011;5616;42.692;23.312;2023-08-31T12:33:58;4.60;;;3.00;;
11123;SDS011;5616;42.692;23.312;2023-08-31T12:36:25;4.47;;;2.83;;
11123;SDS011;5616;42.692;23.312;2023-08-31T12:38:52;5.90;;;3.45;;
11123;SDS011;5616;42.692;23.312;2023-08-31T12:41:19;4.75;;;3.22;;
11123;SDS011;5616;42.692;23.312;2023-08-31T12:43:46;6.13;;;3.20;;
11123;SDS011;5616;42.692;23.312;2023-08-31T12:46:14;3.45;;;2.67;;
11123;SDS011;5616;42.692;23.312;2023-08-31T12:48:42;5.20;;;3.20;;
11123;SDS011;5616;42.692;23.312;2023-08-31T12:51:09;6.55;;;3.13;;
11123;SDS011;5616;42.692;23.312;2023-08-31T12:53:37;4.82;;;3.13;;
11123;SDS011;5616;42.692;23.312;2023-08-31T12:56:05;4.35;;;2.90;;
11123;SDS011;5616;42.692;23.312;2023-08-31T12:58:32;6.25;;;3.78;;
11123;SDS011;5616;42.692;23.312;2023-08-31T13:00:58;4.07;;;2.90;;
11123;SDS011;5616;42.692;23.312;2023-08-31T13:03:27;3.05;;;2.70;;
11123;SDS011;5616;42.692;23.312;2023-08-31T13:05:54;5.28;;;2.85;;
11123;SDS011;5616;42.692;23.312;2023-08-31T13:08:21;6.85;;;3.35;;
11123;SDS011;5616;42.692;23.312;2023-08-31T13:10:51;5.32;;;3.25;;
11123;SDS011;5616;42.692;23.312;2023-08-31T13:13:19;8.52;;;3.30;;
11123;SDS011;5616;42.692;23.312;2023-08-31T13:15:46;6.15;;;3.03;;
11123;SDS011;5616;42.692;23.312;2023-08-31T13:18:13;4.32;;;3.05;;
11123;SDS011;5616;42.692;23.312;2023-08-31T13:20:48;4.32;;;2.95;;
11123;SDS011;5616;42.692;23.312;2023-08-31T13:23:15;5.72;;;3.08;;
11123;SDS011;5616;42.692;23.312;2023-08-31T13:25:42;5.43;;;3.05;;
11123;SDS011;5616;42.692;23.312;2023-08-31T13:28:09;6.13;;;2.92;;
11123;SDS011;5616;42.692;23.312;2023-08-31T13:30:35;5.47;;;3.40;;
11123;SDS011;5616;42.692;23.312;2023-08-31T13:33:02;5.47;;;3.13;;
11123;SDS011;5616;42.692;23.312;2023-08-31T13:35:30;5.43;;;3.20;;
11123;SDS011;5616;42.692;23.312;2023-08-31T13:37:58;5.82;;;3.13;;
11123;SDS011;5616;42.692;23.312;2023-08-31T13:40:25;3.33;;;2.90;;
11123;SDS011;5616;42.692;23.312;2023-08-31T13:42:53;6.45;;;3.08;;
11123;SDS011;5616;42.692;23.312;2023-08-31T13:45:22;5.35;;;3.08;;
11123;SDS011;5616;42.692;23.312;2023-08-31T13:47:49;4.45;;;2.88;;
11123;SDS011;5616;42.692;23.312;2023-08-31T13:50:16;5.55;;;2.80;;
11123;SDS011;5616;42.692;23.312;2023-08-31T13:52:43;7.10;;;2.95;;
11123;SDS011;5616;42.692;23.312;2023-08-31T13:55:11;4.50;;;2.88;;
11123;SDS011;5616;42.692;23.312;2023-08-31T13:57:38;5.57;;;2.83;;
11123;SDS011;5616;42.692;23.312;2023-08-31T14:00:08;8.43;;;2.85;;
11123;SDS011;5616;42.692;23.312;2023-08-31T14:02:38;6.57;;;3.05;;
11123;SDS011;5616;42.692;23.312;2023-08-31T14:05:06;5.70;;;3.35;;
11123;SDS011;5616;42.692;23.312;2023-08-31T14:07:34;4.88;;;3.03;;
11123;SDS011;5616;42.692;23.312;2023-08-31T14:10:01;4.95;;;3.00;;
11123;SDS011;5616;42.692;23.312;2023-08-31T14:12:31;5.97;;;2.90;;
11123;SDS011;5616;42.692;23.312;2023-08-31T14:14:58;4.07;;;3.03;;
11123;SDS011;5616;42.692;23.312;2023-08-31T14:17:28;7.70;;;3.25;;
11123;SDS011;5616;42.692;23.312;2023-08-31T14:19:56;5.93;;;3.20;;
11123;SDS011;5616;42.692;23.312;2023-08-31T14:22:24;7.03;;;3.22;;
11123;SDS011;5616;42.692;23.312;2023-08-31T14:24:51;7.07;;;3.60;;
11123;SDS011;5616;42.692;23.312;2023-08-31T14:27:18;5.55;;;3.15;;
11123;SDS011;5616;42.692;23.312;2023-08-31T14:29:46;7.72;;;3.05;;
11123;SDS011;5616;42.692;23.312;2023-08-31T14:32:13;6.53;;;3.22;;
11123;SDS011;5616;42.692;23.312;2023-08-31T14:34:41;7.22;;;3.20;;
11123;SDS011;5616;42.692;23.312;2023-08-31T14:37:08;5.63;;;2.85;;
11123;SDS011;5616;42.692;23.312;2023-08-31T14:39:34;5.90;;;3.25;;
11123;SDS011;5616;42.692;23.312;2023-08-31T14:42:01;5.57;;;3.17;;
11123;SDS011;5616;42.692;23.312;2023-08-31T14:44:28;5.18;;;2.88;;
11123;SDS011;5616;42.692;23.312;2023-08-31T14:46:57;3.85;;;3.00;;
11123;SDS011;5616;42.692;23.312;2023-08-31T14:49:23;5.63;;;3.08;;
11123;SDS011;5616;42.692;23.312;2023-08-31T14:51:51;5.35;;;3.45;;